< < Back
Terminal Aerodrome Forecast


Current Version              Previous Versions:   1  2  3  4  5  6  7  8  9  

Terminal Aerodrome Forecast

152
FTUS42 KFFC 031351 AAA
TAFATL
TAF AMD
KATL 031351Z 0314/0418 29006KT P6SM SCT070 BKN180
     FM031600 31007KT P6SM SCT030 SCT070 BKN150
     FM031800 31007KT P6SM BKN050
      TEMPO 0319/0323 -SHRA
     FM040000 30004KT P6SM SCT060 SCT150
     FM041400 36004KT P6SM FEW040 SCT250=



Latest METAR

975
SAUS70 KWBC 031600 RRE
MTRATL
METAR KATL 031552Z 32005KT 10SM FEW150 BKN180 BKN250 28/22 A3002 RMK AO2
SLP154 T02830217


USA.gov is the U.S. government's official web portal to all federal, state and local government web resources and services.